Stavropol', Russia
Current Conditions -  °F | °C
As of 5:30 AM on Sunday 23 Nov 2014 (Local Time) from URMT Reporting Station
Overcast Overcast  
Wind Chill: 13°   Ceiling: 500
Heat Index: 19°   Visibility: 6mi
Dew Point: 19°   Wind: 4mph
Humidity: 100%   Direction: 70°ENE
Pressure: 30.09"   Gusts: NA
Location:  45.04°N, 41.97°E
Report Text: URMT 230230Z 07002MPS 9999 OVC005 M07/M07 Q1019 NOSIG RMKQFE724 SC050
Loading
Personal Weather Stations






























Interactive Weather Map New forecast layout! Learn more

10-Day Weather Forecast

Advertisements
Track Severe Weather on mobile